Аэропорт: Ханты-Мансийск. Ханты-Мансийск

ICAO: USHH

METAR:
2019/05/26 14:00
USHH 261400Z 27004MPS CAVOK 13/M01 Q1014 R24/010060 NOSIG RMK QFE757
METAR:
2019/05/26 12:00
TAF USHH 261057Z 2612/2712 26005G12MPS 9999 BKN020 
      BECMG 2613/2615 20003G08MPS 
      TEMPO 2621/2703 4000 BR SCT005 
      BECMG 2703/2705 22005G12MPS